Mountain Iron, Minnesota
Current Conditions -  °F | °C
As of 8:31 PM on Tuesday 21 Oct 2014 (Local Time) from KEVM Reporting Station
Clear Clear  
Wind Chill: 32°   Ceiling: Unl
Heat Index: 36°   Visibility: 10mi
Dew Point: 34°   Wind: 5mph
Humidity: 93%   Direction: 130°SE
Pressure: 30.18"   Gusts: NA
Location:  47.53°N, 92.62°W
Report Text: KEVM 220131Z AUTO 13004KT 10SM CLR 02/01 A3018 RMK AO2
Loading
Personal Weather Stations






























Interactive Weather Map
Tropical Storm Tracking
New forecast layout! Learn more

10-Day Weather Forecast

Advertisements
Track Severe Weather on mobile